Time;durP1;ratioP1;P1;durP2;ratioP2;P2;SDS_P1;SDS_P2;PMS_P1;PMS_P2;Temp;Humidity;BMP_temperature;BMP_pressure;BME280_temperature;BME280_humidity;BME280_pressure;Samples;Min_cycle;Max_cycle;Signal;HPM_P1;HPM_P2
2022/12/07 00:01:28;;;;;;;14.00;12.40;;;4.30;99.90;;;;;;5030644;28;20413;-68
2022/12/07 00:04:04;;;;;;;14.10;12.60;;;4.30;99.90;;;;;;5012079;28;20446;-68
2022/12/07 00:06:31;;;;;;;16.35;12.20;;;4.10;99.90;;;;;;5030433;28;20745;-68
2022/12/07 00:08:56;;;;;;;14.95;12.77;;;4.10;99.90;;;;;;5030309;28;20830;-68
2022/12/07 00:11:23;;;;;;;16.10;13.20;;;4.10;99.90;;;;;;5012734;28;20387;-68
2022/12/07 00:13:54;;;;;;;13.45;12.05;;;4.10;99.90;;;;;;5029512;28;20422;-68
2022/12/07 00:16:21;;;;;;;16.05;12.38;;;4.20;99.90;;;;;;5030483;28;20394;-68
2022/12/07 00:18:47;;;;;;;12.60;11.20;;;4.20;99.90;;;;;;5030262;28;20387;-68
2022/12/07 00:21:13;;;;;;;14.77;12.17;;;4.10;99.90;;;;;;5030419;28;20394;-68
2022/12/07 00:23:41;;;;;;;15.60;12.20;;;4.10;99.90;;;;;;5029471;28;20399;-68
2022/12/07 00:26:09;;;;;;;13.10;11.70;;;4.10;99.90;;;;;;5030255;28;20390;-68
2022/12/07 00:28:35;;;;;;;15.18;11.68;;;4.10;99.90;;;;;;5012134;28;20397;-68
2022/12/07 00:31:10;;;;;;;13.07;11.40;;;4.10;99.90;;;;;;5030227;28;20375;-68
2022/12/07 00:33:36;;;;;;;14.18;11.52;;;4.30;99.90;;;;;;5028407;28;20387;-69
2022/12/07 00:36:06;;;;;;;14.82;12.23;;;4.20;99.90;;;;;;5030276;28;20441;-69
2022/12/07 00:38:33;;;;;;;12.38;10.50;;;4.20;99.90;;;;;;5029955;28;20859;-68
2022/12/07 00:41:02;;;;;;;13.65;11.00;;;4.40;99.90;;;;;;5030074;28;20387;-68
2022/12/07 00:43:28;;;;;;;14.73;10.70;;;4.30;99.90;;;;;;5029252;28;20410;-68
2022/12/07 00:45:54;;;;;;;14.35;11.23;;;4.10;99.90;;;;;;5012454;28;20754;-68
2022/12/07 00:48:21;;;;;;;14.00;11.55;;;4.00;99.90;;;;;;5029852;28;20402;-68
2022/12/07 00:50:47;;;;;;;16.42;12.27;;;4.20;99.90;;;;;;5012320;28;20390;-68
2022/12/07 00:53:13;;;;;;;14.50;12.27;;;4.30;99.90;;;;;;5029295;28;20425;-68
2022/12/07 00:55:38;;;;;;;13.07;11.68;;;4.40;99.90;;;;;;5028952;28;20423;-68
2022/12/07 00:58:04;;;;;;;12.80;11.20;;;4.40;99.90;;;;;;5029852;28;20429;-68
2022/12/07 01:00:30;;;;;;;13.20;11.77;;;4.50;99.90;;;;;;5030016;28;20379;-68
2022/12/07 01:02:56;;;;;;;13.25;11.38;;;4.30;99.90;;;;;;5029248;28;20854;-68
2022/12/07 01:05:21;;;;;;;14.63;11.80;;;4.30;99.90;;;;;;5029802;28;20399;-69
2022/12/07 01:07:47;;;;;;;13.50;11.23;;;4.30;99.90;;;;;;5029677;28;20409;-68
2022/12/07 01:10:14;;;;;;;13.68;11.60;;;4.20;99.90;;;;;;5029852;28;20375;-68
2022/12/07 01:12:40;;;;;;;14.38;12.02;;;4.10;99.90;;;;;;5029091;28;20849;-68
2022/12/07 01:15:06;;;;;;;13.20;11.73;;;4.10;99.90;;;;;;5029971;28;20762;-68
2022/12/07 01:17:32;;;;;;;13.30;11.38;;;4.20;99.90;;;;;;5029676;28;20429;-68
2022/12/07 01:19:57;;;;;;;14.63;12.10;;;4.20;99.90;;;;;;5029728;28;20814;-68
2022/12/07 01:22:23;;;;;;;16.67;10.70;;;4.20;99.90;;;;;;5029486;28;20453;-68
2022/12/07 01:24:48;;;;;;;13.03;10.60;;;4.20;99.90;;;;;;5029184;28;20405;-68
2022/12/07 01:27:14;;;;;;;13.60;10.83;;;4.20;99.90;;;;;;5029659;28;20873;-68
2022/12/07 01:29:40;;;;;;;14.32;11.18;;;4.30;99.90;;;;;;5029630;28;20445;-68
2022/12/07 01:32:05;;;;;;;12.73;10.93;;;4.30;99.90;;;;;;5029754;28;20388;-68
2022/12/07 01:34:31;;;;;;;13.85;10.93;;;4.20;99.90;;;;;;5028816;28;20391;-68
2022/12/07 01:36:57;;;;;;;12.63;10.60;;;4.10;99.90;;;;;;5029523;28;20391;-68
2022/12/07 01:39:23;;;;;;;14.00;11.32;;;4.10;99.90;;;;;;5029327;28;20463;-69
2022/12/07 01:41:49;;;;;;;13.60;11.40;;;4.10;99.90;;;;;;5029512;28;20521;-68
2022/12/07 01:44:29;;;;;;;13.32;11.00;;;4.20;99.90;;;;;;5029433;28;20481;-68
2022/12/07 01:46:57;;;;;;;14.18;11.73;;;4.30;99.90;;;;;;5033070;28;20379;-68
2022/12/07 01:49:37;;;;;;;13.15;10.90;;;4.20;99.90;;;;;;5032566;28;20383;-68
2022/12/07 01:52:23;;;;;;;15.20;11.68;;;4.10;99.90;;;;;;5032196;28;20388;-68
2022/12/07 01:54:54;;;;;;;14.18;11.20;;;4.30;99.90;;;;;;5032413;28;20466;-68
2022/12/07 01:57:20;;;;;;;15.47;11.47;;;4.30;99.90;;;;;;5031719;28;20420;-67
2022/12/07 01:59:48;;;;;;;14.93;11.60;;;4.30;99.90;;;;;;5032810;28;20391;-67
2022/12/07 02:02:21;;;;;;;12.85;10.98;;;4.30;99.90;;;;;;5033051;28;20808;-68
2022/12/07 02:04:46;;;;;;;14.18;11.02;;;4.30;99.90;;;;;;5031932;28;20399;-67
2022/12/07 02:07:12;;;;;;;14.88;12.77;;;4.30;99.90;;;;;;5032763;28;20815;-68
2022/12/07 02:09:38;;;;;;;17.50;13.80;;;4.30;99.90;;;;;;5014604;28;20555;-68
2022/12/07 02:12:04;;;;;;;18.70;15.20;;;4.40;99.90;;;;;;5032791;28;20844;-67
2022/12/07 02:14:30;;;;;;;18.48;15.82;;;4.40;99.90;;;;;;5031733;28;20390;-67
2022/12/07 02:17:14;;;;;;;20.20;16.40;;;4.20;99.90;;;;;;5032550;28;20387;-67
2022/12/07 02:20:04;;;;;;;22.00;17.88;;;4.00;99.90;;;;;;5032318;28;20394;-67
2022/12/07 02:23:04;;;;;;;23.30;18.10;;;4.30;99.90;;;;;;5032052;28;20405;-67
2022/12/07 02:25:59;;;;;;;27.52;20.08;;;4.30;99.90;;;;;;5032427;28;20876;-67
2022/12/07 02:28:36;;;;;;;26.27;19.23;;;4.10;99.90;;;;;;5031950;28;20774;-68
2022/12/07 02:31:21;;;;;;;27.05;20.48;;;4.10;99.90;;;;;;5032204;28;20426;-67
2022/12/07 02:33:54;;;;;;;24.98;19.70;;;4.10;99.90;;;;;;5031484;28;20445;-69
2022/12/07 02:36:26;;;;;;;26.00;19.30;;;3.90;99.90;;;;;;5032153;28;20391;-67
2022/12/07 02:39:08;;;;;;;25.93;19.70;;;4.00;99.90;;;;;;5031858;28;20390;-67
2022/12/07 02:41:40;;;;;;;25.83;19.63;;;4.10;99.90;;;;;;5032091;28;20379;-67
2022/12/07 02:44:09;;;;;;;25.08;19.27;;;3.90;99.90;;;;;;5031208;28;20508;-68
2022/12/07 02:46:45;;;;;;;25.77;19.65;;;4.10;99.90;;;;;;5032129;28;20417;-68
2022/12/07 02:49:11;;;;;;;26.08;19.20;;;4.00;99.90;;;;;;5031809;28;20390;-67
2022/12/07 02:51:42;;;;;;;25.13;19.40;;;3.90;99.90;;;;;;5031860;28;20445;-67
2022/12/07 02:54:19;;;;;;;23.77;17.60;;;4.10;99.90;;;;;;5031122;28;20398;-67
2022/12/07 02:56:52;;;;;;;28.02;19.05;;;4.10;99.90;;;;;;5029839;28;20410;-68
2022/12/07 02:59:47;;;;;;;24.98;18.10;;;4.00;99.90;;;;;;5031499;28;20398;-67
2022/12/07 03:02:24;;;;;;;21.60;16.30;;;4.10;99.90;;;;;;5031814;28;20734;-67
2022/12/07 03:05:08;;;;;;;20.02;15.80;;;4.10;99.90;;;;;;5031424;28;20486;-68
2022/12/07 03:07:58;;;;;;;19.33;15.50;;;4.00;99.90;;;;;;5031806;28;20379;-69
2022/12/07 03:10:45;;;;;;;20.80;15.50;;;3.90;99.90;;;;;;5013760;28;20398;-68
2022/12/07 03:13:26;;;;;;;17.38;13.40;;;3.80;99.90;;;;;;5031060;28;20925;-69
2022/12/07 03:16:12;;;;;;;15.18;13.00;;;3.80;99.90;;;;;;5031593;28;20435;-68
2022/12/07 03:18:45;;;;;;;14.50;12.20;;;3.80;99.90;;;;;;5031580;28;20528;-68
2022/12/07 03:21:17;;;;;;;14.25;10.90;;;3.90;99.90;;;;;;5031704;28;20393;-69
2022/12/07 03:23:47;;;;;;;14.52;11.80;;;4.00;99.90;;;;;;5032911;28;20403;-69
2022/12/07 03:26:17;;;;;;;12.48;10.40;;;4.00;99.90;;;;;;5032245;28;20379;-69
2022/12/07 03:28:49;;;;;;;11.95;10.30;;;3.80;99.90;;;;;;5032110;28;20391;-69
2022/12/07 03:31:26;;;;;;;13.60;11.10;;;3.90;99.90;;;;;;5033408;28;20390;-68
2022/12/07 03:34:07;;;;;;;14.57;10.70;;;3.90;99.90;;;;;;5031913;28;20397;-69
2022/12/07 03:36:42;;;;;;;13.77;10.40;;;3.90;99.90;;;;;;5031957;28;20379;-69
2022/12/07 03:39:33;;;;;;;11.40;9.80;;;4.00;99.90;;;;;;5031312;28;20468;-68
2022/12/07 03:42:01;;;;;;;11.98;9.85;;;4.00;99.90;;;;;;5000875;28;20417;-69
2022/12/07 03:44:27;;;;;;;11.23;8.73;;;4.00;99.90;;;;;;5030466;28;20537;-69
2022/12/07 03:47:04;;;;;;;10.27;8.25;;;4.10;99.90;;;;;;5031500;28;20419;-69
2022/12/07 03:49:32;;;;;;;9.18;8.20;;;4.00;99.90;;;;;;5031113;28;20992;-69
2022/12/07 03:52:11;;;;;;;10.23;8.18;;;4.00;99.90;;;;;;5031490;28;20400;-68
2022/12/07 03:55:01;;;;;;;10.38;8.50;;;3.90;99.90;;;;;;5030035;28;20379;-68
2022/12/07 03:57:30;;;;;;;11.77;9.10;;;3.80;99.90;;;;;;5028357;28;20410;-68
2022/12/07 03:59:57;;;;;;;11.98;9.63;;;3.90;99.90;;;;;;5030616;28;20387;-68
2022/12/07 04:02:25;;;;;;;11.80;9.38;;;3.90;99.90;;;;;;5030852;28;20445;-67
2022/12/07 04:04:51;;;;;;;10.10;8.50;;;3.90;99.90;;;;;;5012724;28;20756;-68
2022/12/07 04:07:17;;;;;;;12.30;9.40;;;3.90;99.90;;;;;;5030463;28;20391;-68
2022/12/07 04:09:43;;;;;;;10.98;9.02;;;3.80;99.90;;;;;;5030126;28;20422;-68
2022/12/07 04:12:08;;;;;;;12.68;9.80;;;3.80;99.90;;;;;;5030603;28;20923;-68
2022/12/07 04:14:34;;;;;;;11.10;9.02;;;3.90;99.90;;;;;;5030031;28;20433;-68
2022/12/07 04:16:59;;;;;;;10.80;8.90;;;3.80;99.90;;;;;;5030431;28;20414;-68
2022/12/07 04:19:35;;;;;;;9.63;8.02;;;3.80;99.90;;;;;;5030218;28;20461;-68
2022/12/07 04:22:03;;;;;;;7.57;6.78;;;3.80;99.90;;;;;;5030251;28;20387;-68
2022/12/07 04:24:29;;;;;;;7.28;5.85;;;3.80;99.90;;;;;;5029456;28;20967;-68
2022/12/07 04:26:54;;;;;;;6.03;5.40;;;4.00;99.90;;;;;;5030269;28;20390;-68
2022/12/07 04:29:21;;;;;;;6.63;5.75;;;3.90;99.90;;;;;;5029953;28;20391;-68
2022/12/07 04:31:47;;;;;;;5.67;4.87;;;3.80;99.90;;;;;;5030492;28;20458;-68
2022/12/07 04:34:13;;;;;;;6.00;5.10;;;3.80;99.90;;;;;;5029788;28;20379;-68
2022/12/07 04:36:40;;;;;;;5.83;5.23;;;3.80;99.90;;;;;;5030437;28;20620;-68
2022/12/07 04:39:07;;;;;;;6.63;5.40;;;3.80;99.90;;;;;;5030374;28;20383;-68
2022/12/07 04:41:33;;;;;;;6.95;5.88;;;3.80;99.90;;;;;;5030547;28;20440;-68
2022/12/07 04:44:01;;;;;;;7.20;5.67;;;3.70;99.90;;;;;;5029708;28;20537;-68
2022/12/07 04:46:28;;;;;;;7.50;6.20;;;3.70;99.90;;;;;;5030690;28;20390;-68
2022/12/07 04:48:54;;;;;;;7.87;6.57;;;3.60;99.90;;;;;;5030459;28;20383;-67
2022/12/07 04:51:23;;;;;;;7.68;6.70;;;3.50;99.90;;;;;;5012390;28;20394;-67
2022/12/07 04:53:49;;;;;;;9.30;6.72;;;3.50;99.90;;;;;;5029525;28;20422;-67
2022/12/07 04:56:16;;;;;;;8.20;6.60;;;3.50;99.90;;;;;;5028637;28;20804;-68
2022/12/07 04:58:43;;;;;;;9.88;7.75;;;3.70;99.90;;;;;;5012916;28;20422;-68
2022/12/07 05:01:08;;;;;;;11.20;8.53;;;3.60;99.90;;;;;;5030528;28;20876;-68
2022/12/07 05:03:36;;;;;;;10.40;8.35;;;3.50;99.90;;;;;;5029684;28;20409;-68
2022/12/07 05:06:02;;;;;;;9.60;8.10;;;3.50;99.90;;;;;;5030067;28;21070;-68
2022/12/07 05:08:27;;;;;;;9.77;8.50;;;3.50;99.90;;;;;;5030074;28;20377;-68
2022/12/07 05:10:53;;;;;;;10.85;8.82;;;3.50;99.90;;;;;;5029955;28;20391;-68
2022/12/07 05:13:18;;;;;;;10.43;8.57;;;3.50;99.90;;;;;;5029258;28;20423;-68
2022/12/07 05:15:44;;;;;;;10.13;8.15;;;3.40;99.90;;;;;;5029986;28;20441;-67
2022/12/07 05:18:12;;;;;;;10.32;8.05;;;3.40;99.90;;;;;;5029848;28;20440;-68
2022/12/07 05:20:41;;;;;;;9.18;7.45;;;3.40;99.90;;;;;;5033084;28;20387;-68
2022/12/07 05:23:07;;;;;;;8.60;7.10;;;3.40;99.90;;;;;;5033066;28;20478;-67
2022/12/07 05:25:33;;;;;;;10.48;7.20;;;3.40;99.90;;;;;;5033633;28;20554;-68
2022/12/07 05:27:58;;;;;;;9.35;6.93;;;3.50;99.90;;;;;;5033531;28;20453;-67
2022/12/07 05:30:25;;;;;;;8.50;7.10;;;3.30;99.90;;;;;;5033546;28;20959;-67
2022/12/07 05:32:51;;;;;;;8.93;7.10;;;3.30;99.90;;;;;;5032755;28;20938;-68
2022/12/07 05:35:17;;;;;;;9.03;6.57;;;3.20;99.90;;;;;;5033478;28;20391;-68
2022/12/07 05:37:43;;;;;;;7.90;6.72;;;3.20;99.90;;;;;;5033539;28;20395;-68
2022/12/07 05:40:10;;;;;;;10.00;7.43;;;3.20;99.90;;;;;;5033428;28;20433;-68
2022/12/07 05:42:36;;;;;;;7.30;6.20;;;3.30;99.90;;;;;;5032616;28;20462;-68
2022/12/07 05:45:02;;;;;;;8.00;6.30;;;3.30;99.90;;;;;;5033298;28;20407;-68
2022/12/07 05:47:27;;;;;;;7.32;6.45;;;3.30;99.90;;;;;;5027865;28;20381;-68
2022/12/07 05:49:53;;;;;;;6.10;5.50;;;3.40;99.90;;;;;;5032984;28;20383;-67
2022/12/07 05:52:18;;;;;;;6.67;5.57;;;3.40;99.90;;;;;;5032555;28;20432;-68
2022/12/07 05:54:44;;;;;;;6.10;5.33;;;3.50;99.90;;;;;;5032280;28;20896;-68
2022/12/07 05:57:09;;;;;;;6.60;5.90;;;3.40;99.90;;;;;;5031009;28;20466;-68
2022/12/07 05:59:35;;;;;;;6.93;5.90;;;3.30;99.90;;;;;;5032772;28;20390;-68
2022/12/07 06:02:04;;;;;;;6.10;5.50;;;3.30;99.90;;;;;;5032467;28;20792;-68
2022/12/07 06:04:33;;;;;;;7.55;5.57;;;3.20;99.90;;;;;;5014033;28;20433;-69
2022/12/07 06:06:59;;;;;;;6.80;5.88;;;3.30;99.90;;;;;;5014902;28;20402;-68
2022/12/07 06:09:26;;;;;;;6.90;5.57;;;3.30;99.90;;;;;;5032505;28;20417;-69
2022/12/07 06:14:36;;;;;;;6.90;6.20;;;3.10;99.90;;;;;;5017007;28;20393;-69
2022/12/07 06:17:02;;;;;;;8.25;6.72;;;3.10;99.90;;;;;;5014766;28;20394;-68
2022/12/07 06:19:27;;;;;;;7.95;6.40;;;2.90;99.90;;;;;;5032388;28;20391;-68
2022/12/07 06:21:53;;;;;;;9.00;6.60;;;2.90;99.90;;;;;;5032069;28;20537;-69
2022/12/07 06:24:19;;;;;;;7.43;5.93;;;2.80;99.90;;;;;;5031230;28;20430;-68
2022/12/07 06:26:45;;;;;;;5.83;5.23;;;2.70;99.90;;;;;;5032317;28;20881;-69
2022/12/07 06:29:11;;;;;;;5.60;4.65;;;2.70;99.90;;;;;;5032155;28;20434;-69
2022/12/07 06:31:37;;;;;;;7.15;5.60;;;2.70;99.90;;;;;;5014022;28;20395;-69
2022/12/07 06:34:09;;;;;;;7.03;5.50;;;2.60;99.90;;;;;;5031524;28;20456;-69
2022/12/07 06:36:35;;;;;;;7.13;5.60;;;2.70;99.90;;;;;;5032244;28;20745;-69
2022/12/07 06:39:01;;;;;;;6.07;4.78;;;2.50;99.90;;;;;;5031719;28;20395;-68
2022/12/07 06:41:26;;;;;;;6.30;5.70;;;2.50;99.90;;;;;;5032062;28;20775;-68
2022/12/07 06:43:52;;;;;;;6.78;6.07;;;2.50;99.90;;;;;;5031405;28;20414;-69
2022/12/07 06:46:18;;;;;;;6.47;5.77;;;2.40;99.90;;;;;;5032024;28;20440;-69
2022/12/07 06:48:43;;;;;;;6.13;5.30;;;2.40;99.90;;;;;;5031978;28;20478;-68
2022/12/07 06:51:09;;;;;;;6.40;5.37;;;2.40;99.90;;;;;;5032267;28;20387;-68
2022/12/07 06:53:35;;;;;;;6.75;5.43;;;2.30;99.90;;;;;;5031349;28;20391;-68
2022/12/07 06:56:01;;;;;;;6.75;5.90;;;2.30;99.90;;;;;;5032108;28;20415;-68
2022/12/07 06:58:27;;;;;;;7.78;5.60;;;2.30;99.90;;;;;;5031987;28;20472;-68
2022/12/07 07:00:53;;;;;;;8.38;5.95;;;2.30;99.90;;;;;;5032081;28;20387;-68
2022/12/07 07:03:18;;;;;;;7.10;6.00;;;2.40;99.90;;;;;;5031227;28;20394;-68
2022/12/07 07:05:44;;;;;;;6.25;5.50;;;2.40;99.90;;;;;;5032083;28;20390;-69
2022/12/07 07:08:10;;;;;;;6.57;5.87;;;2.50;99.90;;;;;;5014463;28;20422;-68
2022/12/07 07:10:36;;;;;;;6.70;5.43;;;2.50;99.90;;;;;;5031774;28;20391;-68
2022/12/07 07:13:03;;;;;;;6.28;5.10;;;2.60;99.90;;;;;;5023642;28;20897;-68
2022/12/07 07:15:29;;;;;;;6.38;5.20;;;2.60;99.90;;;;;;5031923;28;20383;-68
2022/12/07 07:17:54;;;;;;;6.70;5.28;;;2.60;99.90;;;;;;5031523;28;20391;-68
2022/12/07 07:20:20;;;;;;;6.65;5.57;;;2.60;99.90;;;;;;5013792;28;20385;-68
2022/12/07 07:22:45;;;;;;;9.02;6.80;;;2.60;99.90;;;;;;5024534;28;20483;-68
2022/12/07 07:25:11;;;;;;;5.93;5.25;;;2.60;99.90;;;;;;5031188;28;20509;-67
2022/12/07 07:27:36;;;;;;;6.32;5.60;;;2.50;99.90;;;;;;5027300;28;20389;-69
2022/12/07 07:30:03;;;;;;;6.47;5.30;;;2.30;99.90;;;;;;5030769;28;20758;-69
2022/12/07 07:32:29;;;;;;;7.20;6.10;;;2.10;99.90;;;;;;5030496;28;20470;-68
2022/12/07 07:34:54;;;;;;;6.03;5.20;;;2.00;99.90;;;;;;5030266;28;20958;-69
2022/12/07 07:37:20;;;;;;;7.67;5.70;;;2.00;99.90;;;;;;5030869;28;20473;-68
2022/12/07 07:39:46;;;;;;;7.03;5.80;;;2.00;99.90;;;;;;5030821;28;20892;-69
2022/12/07 07:42:11;;;;;;;6.50;5.20;;;1.90;99.90;;;;;;5030201;28;21108;-69
2022/12/07 07:44:37;;;;;;;5.90;5.00;;;2.00;99.90;;;;;;5029595;28;20398;-69
2022/12/07 07:47:03;;;;;;;6.97;5.80;;;2.00;99.90;;;;;;5030711;28;20407;-68
2022/12/07 07:49:28;;;;;;;7.10;5.53;;;2.00;99.90;;;;;;5082905;22;20547;-69
2022/12/07 07:51:54;;;;;;;6.93;5.25;;;1.90;99.90;;;;;;5091174;28;20378;-69
2022/12/07 07:54:19;;;;;;;6.68;5.32;;;1.90;99.90;;;;;;5090373;28;20377;-70
2022/12/07 07:56:45;;;;;;;7.03;5.35;;;1.80;99.90;;;;;;5090628;28;20382;-69
2022/12/07 07:59:10;;;;;;;7.10;5.97;;;1.80;99.90;;;;;;5091096;28;20397;-69
2022/12/07 08:01:36;;;;;;;6.77;6.07;;;1.90;99.90;;;;;;5091194;28;20385;-70
2022/12/07 08:04:01;;;;;;;7.03;6.00;;;2.00;99.90;;;;;;5089976;28;20907;-70
2022/12/07 08:06:27;;;;;;;8.10;7.00;;;2.00;99.90;;;;;;5091137;28;20390;-70
2022/12/07 08:08:52;;;;;;;7.97;6.00;;;2.10;99.90;;;;;;5090694;28;20413;-70
2022/12/07 08:11:18;;;;;;;8.70;6.40;;;2.10;99.90;;;;;;5090818;28;20390;-71
2022/12/07 08:13:49;;;;;;;7.22;6.45;;;2.00;99.90;;;;;;5089997;28;20385;-69
2022/12/07 08:16:15;;;;;;;6.93;6.20;;;2.10;99.90;;;;;;5090975;28;20385;-70
2022/12/07 08:18:41;;;;;;;7.93;6.37;;;2.10;99.90;;;;;;5090648;28;20374;-70
2022/12/07 08:21:10;;;;;;;7.70;6.40;;;2.20;99.90;;;;;;5090820;28;20457;-69
2022/12/07 08:23:36;;;;;;;8.93;7.10;;;2.30;99.90;;;;;;5089739;28;20402;-70
2022/12/07 08:26:02;;;;;;;7.90;7.00;;;2.30;99.90;;;;;;5090266;28;20385;-70
2022/12/07 08:28:29;;;;;;;7.80;6.88;;;2.30;99.90;;;;;;5090539;28;20377;-70
2022/12/07 08:31:05;;;;;;;7.38;6.45;;;2.50;99.90;;;;;;5090761;28;20864;-70
2022/12/07 08:33:32;;;;;;;7.90;6.97;;;2.60;99.90;;;;;;5089711;28;20378;-70
2022/12/07 08:36:05;;;;;;;7.50;6.80;;;2.50;99.90;;;;;;5072435;28;20846;-69
2022/12/07 08:38:31;;;;;;;8.70;7.15;;;2.70;99.90;;;;;;5090345;28;20366;-70
2022/12/07 08:40:58;;;;;;;8.50;7.60;;;2.80;99.90;;;;;;5090669;28;20366;-70
2022/12/07 08:43:23;;;;;;;7.25;6.55;;;3.00;99.90;;;;;;5089682;28;20381;-70
2022/12/07 08:46:12;;;;;;;7.70;6.90;;;3.10;99.90;;;;;;5072471;28;20764;-70
2022/12/07 08:48:53;;;;;;;6.90;6.20;;;3.30;99.90;;;;;;5090249;28;20378;-69
2022/12/07 08:51:20;;;;;;;7.60;6.50;;;3.30;99.90;;;;;;5090368;28;20378;-69
2022/12/07 08:53:46;;;;;;;7.55;6.45;;;3.30;99.90;;;;;;5089893;28;20385;-69
2022/12/07 08:56:11;;;;;;;7.37;6.00;;;3.50;99.90;;;;;;5094682;28;20408;-70
2022/12/07 08:58:39;;;;;;;6.10;5.50;;;3.40;99.90;;;;;;5094487;28;20432;-70
2022/12/07 09:01:05;;;;;;;6.80;6.05;;;3.40;99.90;;;;;;5094519;28;20389;-70
2022/12/07 09:03:31;;;;;;;5.90;5.30;;;3.60;99.90;;;;;;5093337;28;20428;-70
2022/12/07 09:05:57;;;;;;;6.15;5.07;;;3.70;99.90;;;;;;5094301;28;20392;-69
2022/12/07 09:08:29;;;;;;;5.97;5.00;;;3.60;99.90;;;;;;5094409;28;20414;-70
2022/12/07 09:10:55;;;;;;;6.07;5.45;;;3.60;99.90;;;;;;5074357;28;20812;-70
2022/12/07 09:13:20;;;;;;;6.10;5.50;;;3.60;99.90;;;;;;5073361;28;20411;-69
2022/12/07 09:15:46;;;;;;;6.80;5.90;;;3.60;99.90;;;;;;5073951;28;20438;-70
2022/12/07 09:18:12;;;;;;;7.93;6.10;;;3.50;99.90;;;;;;5073976;28;20440;-70
2022/12/07 09:20:37;;;;;;;6.82;5.93;;;3.60;99.90;;;;;;5073987;28;20386;-70
2022/12/07 09:23:06;;;;;;;7.00;6.13;;;3.50;99.90;;;;;;5073474;28;20917;-70
2022/12/07 09:25:31;;;;;;;8.90;6.40;;;3.50;99.90;;;;;;5056248;28;20426;-70
2022/12/07 09:27:58;;;;;;;7.60;6.07;;;3.50;99.90;;;;;;5056202;28;20392;-70
2022/12/07 09:30:24;;;;;;;7.40;6.60;;;3.60;99.90;;;;;;5074024;28;20380;-70
2022/12/07 09:32:50;;;;;;;7.07;6.38;;;3.60;99.90;;;;;;5072823;28;20379;-70
2022/12/07 09:35:15;;;;;;;6.60;5.90;;;3.70;99.90;;;;;;5073794;28;20383;-70
2022/12/07 09:37:41;;;;;;;8.82;6.53;;;3.80;99.90;;;;;;5073834;28;20379;-70
2022/12/07 09:40:07;;;;;;;6.95;6.25;;;4.00;99.90;;;;;;5073579;28;20757;-69
2022/12/07 09:42:40;;;;;;;6.65;5.90;;;4.00;99.90;;;;;;5073059;28;20384;-68
2022/12/07 09:45:11;;;;;;;9.85;6.00;;;3.90;99.90;;;;;;5073285;28;20406;-71
2022/12/07 09:47:37;;;;;;;7.85;6.40;;;3.90;99.90;;;;;;5055648;28;20387;-70
2022/12/07 09:50:16;;;;;;;6.95;6.25;;;3.90;99.90;;;;;;5073120;28;20383;-70
2022/12/07 09:52:43;;;;;;;8.38;6.50;;;4.00;99.90;;;;;;5072620;28;20447;-69
2022/12/07 09:55:16;;;;;;;9.05;7.00;;;4.10;99.90;;;;;;5073128;28;20383;-70
2022/12/07 09:57:42;;;;;;;7.30;6.60;;;4.20;99.90;;;;;;5073051;28;20392;-69
2022/12/07 10:00:17;;;;;;;6.07;5.47;;;4.30;99.90;;;;;;5073016;28;20416;-69
2022/12/07 10:02:47;;;;;;;6.90;6.05;;;4.40;99.90;;;;;;5072723;28;20383;-70
2022/12/07 10:05:34;;;;;;;7.10;6.10;;;4.30;99.90;;;;;;5072425;28;20988;-70
2022/12/07 10:07:59;;;;;;;7.22;6.20;;;4.50;99.90;;;;;;5073098;28;20392;-69
2022/12/07 10:10:31;;;;;;;7.00;6.00;;;4.60;99.90;;;;;;5087640;28;20408;-70
2022/12/07 10:13:00;;;;;;;6.60;5.93;;;4.60;99.90;;;;;;5092362;28;20462;-70
2022/12/07 10:15:55;;;;;;;7.90;6.00;;;4.80;99.90;;;;;;5093475;28;20378;-69
2022/12/07 10:18:35;;;;;;;9.25;7.05;;;4.80;99.90;;;;;;5092852;28;20377;-69
2022/12/07 10:21:12;;;;;;;6.80;6.10;;;4.80;99.90;;;;;;5092819;28;20386;-69
2022/12/07 10:23:42;;;;;;;6.20;5.55;;;4.80;99.90;;;;;;5091975;28;20469;-70
2022/12/07 10:26:28;;;;;;;8.18;5.40;;;5.00;99.90;;;;;;5092819;28;20443;-70
2022/12/07 10:28:55;;;;;;;4.95;4.45;;;5.10;99.90;;;;;;5092643;28;20396;-70
2022/12/07 10:31:22;;;;;;;6.00;4.70;;;5.10;99.90;;;;;;5092802;28;20920;-70
2022/12/07 10:33:48;;;;;;;5.10;4.60;;;5.30;99.90;;;;;;5091989;28;20394;-71
2022/12/07 10:36:17;;;;;;;7.73;4.63;;;5.20;99.90;;;;;;5092617;28;20460;-70
2022/12/07 10:38:49;;;;;;;5.20;4.70;;;5.20;99.90;;;;;;5074435;28;20963;-70
2022/12/07 10:41:16;;;;;;;4.35;3.95;;;5.50;99.90;;;;;;5092376;28;20386;-71
2022/12/07 10:43:50;;;;;;;7.10;5.07;;;5.70;99.90;;;;;;5091633;28;20408;-71
2022/12/07 10:46:29;;;;;;;4.00;3.60;;;5.80;99.90;;;;;;5092322;28;20401;-70
2022/12/07 10:49:16;;;;;;;3.70;3.00;;;6.00;99.90;;;;;;5092234;28;20446;-69
2022/12/07 10:52:00;;;;;;;3.97;3.00;;;6.40;99.90;;;;;;5092607;28;20400;-70
2022/12/07 10:54:25;;;;;;;2.90;2.60;;;6.20;99.90;;;;;;5091997;28;20380;-71
2022/12/07 10:57:04;;;;;;;3.72;3.30;;;6.10;98.90;;;;;;5092862;28;20457;-69
2022/12/07 11:00:10;;;;;;;2.72;2.40;;;6.40;99.90;;;;;;5092337;28;20390;-70
2022/12/07 11:02:45;;;;;;;2.50;2.30;;;6.80;96.70;;;;;;5077119;28;20729;-70
2022/12/07 11:05:24;;;;;;;3.20;2.70;;;7.00;96.00;;;;;;5091998;28;20493;-70
2022/12/07 11:08:13;;;;;;;2.63;2.42;;;7.20;95.00;;;;;;5092131;28;20374;-69
2022/12/07 11:10:53;;;;;;;2.80;2.60;;;7.80;92.70;;;;;;5055219;28;20445;-70
2022/12/07 11:13:21;;;;;;;2.70;2.50;;;7.30;89.70;;;;;;5070960;28;20380;-70
2022/12/07 11:15:55;;;;;;;2.50;2.30;;;8.30;88.90;;;;;;5071512;28;20372;-70
2022/12/07 11:18:29;;;;;;;3.30;3.00;;;9.00;77.90;;;;;;5070703;28;20396;-70
2022/12/07 11:21:19;;;;;;;2.78;2.58;;;9.20;75.40;;;;;;5071455;28;20384;-70
2022/12/07 11:23:48;;;;;;;3.25;2.95;;;9.50;75.30;;;;;;5070698;28;20487;-70
2022/12/07 11:27:10;;;;;;;4.00;3.60;;;9.60;68.30;;;;;;5071399;28;20395;-70
2022/12/07 11:29:44;;;;;;;2.75;2.45;;;9.30;68.70;;;;;;4970413;28;20417;-71
2022/12/07 11:32:44;;;;;;;2.90;2.33;;;10.50;58.00;;;;;;4970406;28;20388;-69
2022/12/07 11:35:43;;;;;;;2.40;2.13;;;10.20;51.30;;;;;;5059361;28;20414;-70
2022/12/07 11:38:14;;;;;;;2.95;2.65;;;11.30;51.10;;;;;;5071326;28;20379;-70
2022/12/07 11:40:43;;;;;;;2.70;2.50;;;10.50;52.60;;;;;;5071294;28;20371;-71
2022/12/07 11:43:28;;;;;;;1.70;1.60;;;9.80;52.40;;;;;;5070805;28;20893;-70
2022/12/07 11:46:04;;;;;;;1.70;1.60;;;10.20;49.90;;;;;;5053731;28;20395;-70
2022/12/07 11:48:41;;;;;;;2.63;1.80;;;10.80;46.20;;;;;;5053477;28;20372;-70
2022/12/07 11:51:10;;;;;;;2.60;2.40;;;10.90;46.30;;;;;;5071263;28;20941;-70
2022/12/07 11:53:52;;;;;;;2.90;2.70;;;11.00;45.00;;;;;;5070393;28;20451;-70
2022/12/07 11:56:23;;;;;;;2.45;2.25;;;11.60;45.20;;;;;;5071217;28;20394;-70
2022/12/07 11:59:00;;;;;;;2.50;2.30;;;11.50;44.20;;;;;;5071200;28;20830;-71
2022/12/07 12:01:38;;;;;;;2.50;2.30;;;11.00;43.20;;;;;;5071576;28;20367;-70
2022/12/07 12:04:10;;;;;;;3.33;2.60;;;11.00;42.90;;;;;;5052691;28;20430;-70
2022/12/07 12:06:42;;;;;;;2.60;2.40;;;11.40;44.10;;;;;;5053383;28;20796;-71
2022/12/07 12:09:23;;;;;;;3.00;2.70;;;10.50;45.50;;;;;;5076296;28;20386;-71
2022/12/07 12:12:10;;;;;;;3.20;2.90;;;10.10;46.40;;;;;;5090568;28;20394;-71
2022/12/07 12:14:44;;;;;;;3.15;2.75;;;9.60;47.70;;;;;;5090144;28;20389;-71
2022/12/07 12:17:26;;;;;;;3.13;2.83;;;10.40;48.80;;;;;;5072684;28;20948;-70
2022/12/07 12:20:35;;;;;;;2.70;2.50;;;9.70;49.40;;;;;;5091322;28;20872;-70
2022/12/07 12:23:24;;;;;;;3.10;2.80;;;8.30;50.90;;;;;;5090958;28;20386;-70
2022/12/07 12:25:56;;;;;;;3.60;2.60;;;8.40;53.80;;;;;;5072995;28;20390;-68
2022/12/07 12:28:54;;;;;;;2.50;2.30;;;7.80;54.80;;;;;;5090736;28;20917;-69
2022/12/07 12:31:19;;;;;;;2.90;2.60;;;7.90;56.70;;;;;;5090749;28;20385;-70
2022/12/07 12:33:49;;;;;;;2.50;2.20;;;8.00;55.20;;;;;;5090553;28;20465;-70
2022/12/07 12:36:15;;;;;;;3.00;2.70;;;7.90;56.70;;;;;;5091508;28;20389;-70
2022/12/07 12:39:08;;;;;;;3.50;3.20;;;7.60;57.90;;;;;;5091533;28;20382;-70
2022/12/07 12:42:05;;;;;;;3.73;3.10;;;7.40;60.80;;;;;;5073218;28;20390;-70
2022/12/07 12:44:33;;;;;;;4.20;3.05;;;7.30;63.10;;;;;;5090154;28;20528;-69
2022/12/07 12:46:59;;;;;;;4.80;3.03;;;7.50;64.80;;;;;;5089773;28;20804;-70
2022/12/07 12:49:33;;;;;;;3.97;3.58;;;6.90;70.10;;;;;;5063849;28;20750;-70
2022/12/07 12:52:14;;;;;;;3.70;3.30;;;7.40;71.10;;;;;;5081555;28;20396;-71
2022/12/07 12:54:57;;;;;;;4.63;3.80;;;7.30;77.20;;;;;;5080012;28;20872;-70
2022/12/07 12:57:28;;;;;;;4.90;4.40;;;7.00;80.50;;;;;;5079435;28;20523;-70
2022/12/07 12:59:53;;;;;;;4.10;3.70;;;6.90;81.10;;;;;;5080724;28;20750;-70
2022/12/07 13:02:27;;;;;;;3.63;3.33;;;7.00;82.70;;;;;;5066135;28;20438;-70
2022/12/07 13:05:00;;;;;;;4.05;3.65;;;7.30;79.70;;;;;;5090233;28;20390;-70
2022/12/07 13:07:44;;;;;;;4.35;3.38;;;7.00;80.90;;;;;;5090013;28;20378;-71
2022/12/07 13:10:28;;;;;;;3.83;3.50;;;6.90;84.10;;;;;;5080379;28;20471;-70
2022/12/07 13:13:15;;;;;;;4.10;3.47;;;6.90;85.60;;;;;;5078269;28;20392;-70